createdAt,value
2023-02-11T00:00:07.808Z,103411.59
2023-02-11T00:01:40.210Z,103414.28
2023-02-11T00:03:12.307Z,103407.31
2023-02-11T00:04:44.529Z,103410.72
2023-02-11T00:06:17.055Z,103402.84
2023-02-11T00:07:49.093Z,103413.25
2023-02-11T00:09:21.258Z,103414.06
2023-02-11T00:10:58.085Z,103406.97
2023-02-11T00:12:30.701Z,103407.78
2023-02-11T00:14:08.566Z,103399.00
2023-02-11T00:15:41.880Z,103394.63
2023-02-11T00:17:14.202Z,103391.94
2023-02-11T00:18:46.881Z,103390.06
2023-02-11T00:20:19.034Z,103383.91
2023-02-11T00:21:51.466Z,103388.22
2023-02-11T00:23:25.892Z,103395.94
2023-02-11T00:25:01.216Z,103378.56
2023-02-11T00:26:35.611Z,103382.88
2023-02-11T00:28:08.569Z,103384.56
2023-02-11T00:29:43.588Z,103381.16
2023-02-11T00:31:17.665Z,103389.69
2023-02-11T00:32:50.036Z,103377.44
2023-02-11T00:34:32.043Z,103382.63
2023-02-11T00:36:07.105Z,103379.88
2023-02-11T00:37:39.419Z,103372.06
2023-02-11T00:39:11.896Z,103385.16
2023-02-11T00:40:44.174Z,103379.06
2023-02-11T00:42:16.464Z,103382.47
2023-02-11T00:43:50.529Z,103373.78
2023-02-11T00:45:24.367Z,103384.25
2023-02-11T00:46:56.574Z,103380.75
2023-02-11T00:48:35.439Z,103384.25
2023-02-11T00:50:11.574Z,103384.25
2023-02-11T00:51:58.299Z,103384.31
2023-02-11T00:53:31.323Z,103382.53
2023-02-11T00:55:03.531Z,103390.41
2023-02-11T00:56:37.218Z,103384.16
2023-02-11T00:58:09.352Z,103388.47
2023-02-11T00:59:41.609Z,103382.31
2023-02-11T01:01:14.144Z,103385.16
2023-02-11T01:02:53.113Z,103381.66
2023-02-11T01:04:25.174Z,103380.91
2023-02-11T01:06:04.042Z,103390.41
2023-02-11T01:07:37.607Z,103377.44
2023-02-11T01:09:09.728Z,103387.91
2023-02-11T01:10:41.917Z,103380.09
2023-02-11T01:12:15.333Z,103381.88
2023-02-11T01:13:50.337Z,103381.00
2023-02-11T01:15:22.910Z,103374.09
2023-02-11T01:16:55.438Z,103372.53
2023-02-11T01:18:30.637Z,103369.78
2023-02-11T01:20:10.679Z,103381.97
2023-02-11T01:21:42.949Z,103381.97
2023-02-11T01:23:15.352Z,103388.13
2023-02-11T01:24:49.313Z,103389.75
2023-02-11T01:26:21.470Z,103382.94
2023-02-11T01:27:53.541Z,103391.56
2023-02-11T01:29:26.187Z,103394.16
2023-02-11T01:31:01.287Z,103387.16
2023-02-11T01:32:34.371Z,103389.75
2023-02-11T01:34:07.354Z,103400.97
2023-02-11T01:35:42.265Z,103399.25
2023-02-11T01:37:14.526Z,103396.66
2023-02-11T01:38:46.585Z,103396.59
2023-02-11T01:40:19.089Z,103406.25
2023-02-11T01:41:51.487Z,103401.88
2023-02-11T01:43:24.876Z,103411.28
2023-02-11T01:44:58.172Z,103410.63
2023-02-11T01:46:38.428Z,103409.72
2023-02-11T01:48:15.403Z,103407.94
2023-02-11T01:49:58.435Z,103389.75
2023-02-11T01:51:40.931Z,103389.69
2023-02-11T01:53:31.650Z,103393.25
2023-02-11T01:55:25.384Z,103381.97
2023-02-11T01:57:18.064Z,103383.59
2023-02-11T01:58:52.261Z,103376.63
2023-02-11T02:00:39.440Z,103371.41
2023-02-11T02:02:13.344Z,103367.84
2023-02-11T02:03:46.885Z,103356.56
2023-02-11T02:05:27.732Z,103366.97
2023-02-11T02:07:04.483Z,103354.69
2023-02-11T02:08:53.047Z,103345.94
2023-02-11T02:10:27.019Z,103351.94
2023-02-11T02:11:59.179Z,103346.66
2023-02-11T02:13:32.786Z,103340.66
2023-02-11T02:15:21.292Z,103336.19
2023-02-11T02:16:55.666Z,103331.09
2023-02-11T02:18:40.708Z,103344.00
2023-02-11T02:20:17.977Z,103348.22
2023-02-11T02:22:28.562Z,103350.81
2023-02-11T02:24:25.347Z,103357.78
2023-02-11T02:26:20.061Z,103363.81
2023-02-11T02:28:10.936Z,103362.03
2023-02-11T02:30:01.567Z,103363.81
2023-02-11T02:31:58.846Z,103363.72
2023-02-11T02:34:01.726Z,103354.22
2023-02-11T02:35:47.506Z,103361.03
2023-02-11T02:37:33.491Z,103355.78
2023-02-11T02:39:12.711Z,103351.47
2023-02-11T02:40:46.489Z,103359.25
2023-02-11T02:42:19.234Z,103358.38
2023-02-11T02:43:52.343Z,103355.78
2023-02-11T02:45:24.711Z,103352.28
2023-02-11T02:47:00.075Z,103352.28
2023-02-11T02:48:40.523Z,103355.84
2023-02-11T02:50:21.214Z,103362.03
2023-02-11T02:52:23.825Z,103367.22
2023-02-11T02:54:44.098Z,103362.03
2023-02-11T02:56:45.247Z,103359.34
2023-02-11T02:58:25.646Z,103362.66
2023-02-11T03:00:12.360Z,103355.78
2023-02-11T03:02:11.957Z,103351.47
2023-02-11T03:04:07.629Z,103346.28
2023-02-11T03:05:55.929Z,103332.31
2023-02-11T03:07:42.836Z,103338.41
2023-02-11T03:09:26.725Z,103332.25
2023-02-11T03:11:00.056Z,103327.94
2023-02-11T03:12:33.701Z,103322.66
2023-02-11T03:14:11.220Z,103330.53
2023-02-11T03:15:46.254Z,103333.94
2023-02-11T03:17:18.914Z,103334.91
2023-02-11T03:18:59.978Z,103334.09
2023-02-11T03:20:37.230Z,103339.28
2023-02-11T03:22:16.471Z,103341.00
2023-02-11T03:23:57.591Z,103344.50
2023-02-11T03:25:37.882Z,103337.59
2023-02-11T03:27:16.804Z,103329.81
2023-02-11T03:28:55.063Z,103330.78
2023-02-11T03:30:33.368Z,103321.28
2023-02-11T03:32:16.496Z,103321.28
2023-02-11T03:33:51.560Z,103329.06
2023-02-11T03:35:34.979Z,103322.91
2023-02-11T03:37:25.549Z,103333.44
2023-02-11T03:38:58.989Z,103335.06
2023-02-11T03:40:33.526Z,103332.47
2023-02-11T03:42:07.732Z,103335.88
2023-02-11T03:43:52.003Z,103335.06
2023-02-11T03:45:25.708Z,103341.97
2023-02-11T03:46:58.159Z,103341.16
2023-02-11T03:48:53.216Z,103350.00
2023-02-11T03:50:26.941Z,103341.25
2023-02-11T03:52:01.582Z,103339.63
2023-02-11T03:53:34.348Z,103339.63
2023-02-11T03:55:11.835Z,103346.59
2023-02-11T03:56:56.672Z,103332.72
2023-02-11T03:58:28.721Z,103334.34
2023-02-11T04:00:01.077Z,103329.06
2023-02-11T04:01:43.701Z,103334.19
2023-02-11T04:03:15.917Z,103329.66
2023-02-11T04:04:48.141Z,103329.56
2023-02-11T04:06:20.322Z,103323.41
2023-02-11T04:07:52.467Z,103321.63
2023-02-11T04:09:24.531Z,103321.53
2023-02-11T04:10:56.653Z,103319.66
2023-02-11T04:12:29.420Z,103311.88
2023-02-11T04:14:01.568Z,103313.50
2023-02-11T04:15:33.677Z,103308.94
2023-02-11T04:17:06.040Z,103310.63
2023-02-11T04:18:38.127Z,103317.53
2023-02-11T04:20:10.882Z,103312.19
2023-02-11T04:21:43.056Z,103311.38
2023-02-11T04:23:15.126Z,103307.88
2023-02-11T04:24:47.248Z,103307.88
2023-02-11T04:26:19.400Z,103312.91
2023-02-11T04:27:51.551Z,103312.09
2023-02-11T04:29:23.736Z,103315.66
2023-02-11T04:30:56.393Z,103314.78
2023-02-11T04:32:28.607Z,103318.25
2023-02-11T04:34:00.948Z,103320.88
2023-02-11T04:35:33.097Z,103331.31
2023-02-11T04:37:05.454Z,103330.44
2023-02-11T04:38:37.633Z,103330.50
2023-02-11T04:40:10.405Z,103330.50
2023-02-11T04:41:42.603Z,103332.38
2023-02-11T04:43:15.126Z,103324.69
2023-02-11T04:44:47.392Z,103317.72
2023-02-11T04:46:19.590Z,103317.72
2023-02-11T04:47:51.751Z,103323.69
2023-02-11T04:49:23.873Z,103312.53
2023-02-11T04:50:55.962Z,103323.91
2023-02-11T04:52:28.033Z,103326.66
2023-02-11T04:54:00.479Z,103325.75
2023-02-11T04:55:32.720Z,103323.25
2023-02-11T04:57:08.102Z,103326.66
2023-02-11T04:58:40.286Z,103317.97
2023-02-11T05:00:13.032Z,103319.91
2023-02-11T05:01:45.246Z,103319.00
2023-02-11T05:03:17.684Z,103321.63
2023-02-11T05:04:49.889Z,103320.00
2023-02-11T05:06:22.095Z,103324.38
2023-02-11T05:07:54.369Z,103326.97
2023-02-11T05:09:26.610Z,103322.66
2023-02-11T05:10:59.076Z,103333.06
2023-02-11T05:12:31.251Z,103335.72
2023-02-11T05:14:06.234Z,103336.63
2023-02-11T05:15:41.571Z,103339.28
2023-02-11T05:17:15.190Z,103333.13
2023-02-11T05:18:47.456Z,103326.31
2023-02-11T05:20:20.947Z,103329.81
2023-02-11T05:22:02.553Z,103321.94
2023-02-11T05:23:38.799Z,103326.31
2023-02-11T05:25:14.394Z,103322.91
2023-02-11T05:26:46.459Z,103325.66
2023-02-11T05:28:18.663Z,103316.81
2023-02-11T05:29:50.876Z,103313.31
2023-02-11T05:31:22.926Z,103317.63
2023-02-11T05:32:55.089Z,103315.94
2023-02-11T05:34:27.298Z,103315.94
2023-02-11T05:36:12.629Z,103318.59
2023-02-11T05:37:44.825Z,103309.91
2023-02-11T05:39:16.876Z,103313.47
2023-02-11T05:40:49.131Z,103308.28
2023-02-11T05:42:21.511Z,103301.31
2023-02-11T05:43:53.661Z,103308.28
2023-02-11T05:45:25.696Z,103310.06
2023-02-11T05:46:57.880Z,103308.38
2023-02-11T05:48:30.247Z,103312.66
2023-02-11T05:50:02.408Z,103314.44
2023-02-11T05:51:37.326Z,103311.94
2023-02-11T05:53:09.468Z,103307.63
2023-02-11T05:54:41.882Z,103309.25
2023-02-11T05:56:14.829Z,103309.34
2023-02-11T05:57:46.800Z,103313.78
2023-02-11T05:59:19.075Z,103307.63
2023-02-11T06:00:51.220Z,103306.75
2023-02-11T06:02:23.586Z,103312.81
2023-02-11T06:03:55.718Z,103318.09
2023-02-11T06:05:31.307Z,103322.41
2023-02-11T06:07:04.060Z,103318.09
2023-02-11T06:08:39.055Z,103326.78
2023-02-11T06:10:13.033Z,103311.19
2023-02-11T06:11:45.267Z,103304.28
2023-02-11T06:13:18.963Z,103304.28
2023-02-11T06:14:51.178Z,103301.69
2023-02-11T06:16:23.346Z,103309.50
2023-02-11T06:17:55.498Z,103306.06
2023-02-11T06:19:27.709Z,103307.78
2023-02-11T06:21:00.293Z,103313.94
2023-02-11T06:22:32.516Z,103308.84
2023-02-11T06:24:07.313Z,103306.31
2023-02-11T06:25:39.627Z,103306.31
2023-02-11T06:27:11.916Z,103312.31
2023-02-11T06:28:44.222Z,103311.44
2023-02-11T06:30:16.434Z,103307.13
2023-02-11T06:31:48.796Z,103308.09
2023-02-11T06:33:21.162Z,103313.28
2023-02-11T06:34:53.408Z,103311.59
2023-02-11T06:36:25.958Z,103310.69
2023-02-11T06:37:58.382Z,103309.81
2023-02-11T06:39:33.159Z,103308.09
2023-02-11T06:41:05.649Z,103313.28
2023-02-11T06:42:39.464Z,103324.56
2023-02-11T06:44:11.814Z,103320.28
2023-02-11T06:45:44.180Z,103317.69
2023-02-11T06:47:16.432Z,103326.44
2023-02-11T06:48:52.651Z,103333.41
2023-02-11T06:50:28.137Z,103329.94
2023-02-11T06:52:00.405Z,103328.22
2023-02-11T06:53:35.938Z,103321.25
2023-02-11T06:55:10.565Z,103322.22
2023-02-11T06:56:44.725Z,103315.22
2023-02-11T06:58:17.152Z,103327.50
2023-02-11T06:59:51.448Z,103323.91
2023-02-11T07:01:27.095Z,103333.41
2023-02-11T07:02:59.639Z,103334.31
2023-02-11T07:04:32.076Z,103330.91
2023-02-11T07:06:08.555Z,103338.63
2023-02-11T07:07:43.514Z,103340.41
2023-02-11T07:09:18.133Z,103334.31
2023-02-11T07:10:50.295Z,103342.19
2023-02-11T07:12:22.448Z,103342.19
2023-02-11T07:13:56.940Z,103342.25
2023-02-11T07:15:29.224Z,103336.16
2023-02-11T07:17:05.082Z,103345.75
2023-02-11T07:18:37.670Z,103344.03
2023-02-11T07:20:12.755Z,103346.72
2023-02-11T07:21:45.147Z,103345.91
2023-02-11T07:23:17.613Z,103338.94
2023-02-11T07:24:50.179Z,103348.50
2023-02-11T07:26:24.392Z,103340.78
2023-02-11T07:27:56.893Z,103349.47
2023-02-11T07:29:32.670Z,103351.25
2023-02-11T07:31:14.469Z,103352.88
2023-02-11T07:32:46.774Z,103352.97
2023-02-11T07:34:21.156Z,103355.56
2023-02-11T07:35:53.537Z,103359.88
2023-02-11T07:37:25.998Z,103360.84
2023-02-11T07:38:58.467Z,103362.63
2023-02-11T07:40:31.865Z,103363.59
2023-02-11T07:42:04.646Z,103370.41
2023-02-11T07:43:37.609Z,103359.13
2023-02-11T07:45:12.941Z,103375.78
2023-02-11T07:46:45.879Z,103371.38
2023-02-11T07:48:20.488Z,103374.00
2023-02-11T07:49:56.161Z,103374.88
2023-02-11T07:51:30.223Z,103377.56
2023-02-11T07:53:03.608Z,103369.75
2023-02-11T07:54:36.483Z,103382.06
2023-02-11T07:56:10.128Z,103378.56
2023-02-11T07:57:45.763Z,103390.56
2023-02-11T07:59:17.884Z,103386.34
2023-02-11T08:00:50.172Z,103380.41
2023-02-11T08:02:22.411Z,103375.31
2023-02-11T08:03:59.083Z,103380.59
2023-02-11T08:05:31.331Z,103378.06
2023-02-11T08:07:26.430Z,103378.94
2023-02-11T08:08:59.314Z,103380.66
2023-02-11T08:10:31.397Z,103382.59
2023-02-11T08:12:04.003Z,103371.22
2023-02-11T08:13:45.748Z,103383.34
2023-02-11T08:15:32.339Z,103376.44
2023-02-11T08:17:05.120Z,103378.28
2023-02-11T08:18:39.906Z,103387.06
2023-02-11T08:20:12.395Z,103378.44
2023-02-11T08:21:45.068Z,103384.63
2023-02-11T08:23:19.752Z,103387.28
2023-02-11T08:24:57.409Z,103390.84
2023-02-11T08:26:41.542Z,103393.47
2023-02-11T08:28:18.204Z,103388.34
2023-02-11T08:29:50.568Z,103386.69
2023-02-11T08:31:23.862Z,103386.78
2023-02-11T08:32:56.875Z,103390.19
2023-02-11T08:34:29.189Z,103389.38
2023-02-11T08:36:02.142Z,103393.84
2023-02-11T08:37:38.597Z,103392.06
2023-02-11T08:39:21.770Z,103390.34
2023-02-11T08:40:53.992Z,103395.63
2023-02-11T08:42:26.413Z,103398.22
2023-02-11T08:43:59.043Z,103400.09
2023-02-11T08:45:31.777Z,103408.03
2023-02-11T08:47:04.124Z,103406.34
2023-02-11T08:48:36.448Z,103412.44
2023-02-11T08:50:16.532Z,103415.03
2023-02-11T08:52:08.068Z,103419.34
2023-02-11T08:53:40.518Z,103413.31
2023-02-11T08:55:12.849Z,103410.78
2023-02-11T08:56:46.584Z,103411.69
2023-02-11T08:58:23.834Z,103408.34
2023-02-11T08:59:56.167Z,103414.38
2023-02-11T09:01:37.003Z,103417.78
2023-02-11T09:03:15.901Z,103408.41
2023-02-11T09:04:48.481Z,103412.72
2023-02-11T09:06:23.970Z,103414.50
2023-02-11T09:08:02.323Z,103417.13
2023-02-11T09:09:43.226Z,103412.88
2023-02-11T09:11:16.019Z,103408.72
2023-02-11T09:14:39.368Z,103412.31
2023-02-11T09:17:27.321Z,103414.00
2023-02-11T09:19:23.753Z,103415.72
2023-02-11T09:21:15.897Z,103416.72
2023-02-11T09:22:52.915Z,103419.38
2023-02-11T09:24:36.557Z,103414.25
2023-02-11T09:26:36.404Z,103417.84
2023-02-11T09:28:11.960Z,103415.16
2023-02-11T09:29:44.184Z,103418.88
2023-02-11T09:31:19.775Z,103424.81
2023-02-11T09:32:52.221Z,103420.44
2023-02-11T09:34:27.579Z,103424.75
2023-02-11T09:36:04.507Z,103430.03
2023-02-11T09:37:38.669Z,103426.69
2023-02-11T09:39:17.329Z,103431.88
2023-02-11T09:40:49.852Z,103433.66
2023-02-11T09:42:43.679Z,103433.81
2023-02-11T09:44:28.592Z,103437.22
2023-02-11T09:46:09.696Z,103439.03
2023-02-11T09:48:23.348Z,103442.66
2023-02-11T09:50:15.423Z,103441.78
2023-02-11T09:52:01.764Z,103441.78
2023-02-11T09:54:30.965Z,103442.66
2023-02-11T09:56:30.052Z,103448.75
2023-02-11T09:58:27.574Z,103447.13
2023-02-11T10:00:25.682Z,103449.72
2023-02-11T10:03:08.916Z,103460.28
2023-02-11T10:05:20.198Z,103461.09
2023-02-11T10:07:22.190Z,103463.03
2023-02-11T10:09:15.271Z,103463.94
2023-02-11T10:11:07.216Z,103465.88
2023-02-11T10:13:22.147Z,103466.75
2023-02-11T10:15:17.500Z,103466.84
2023-02-11T10:17:11.123Z,103469.72
2023-02-11T10:19:11.607Z,103475.84
2023-02-11T10:23:45.906Z,103473.38
2023-02-11T10:25:38.319Z,103470.94
2023-02-11T10:33:05.783Z,103490.25
2023-02-11T10:43:37.315Z,103482.84
2023-02-11T10:46:31.881Z,103491.16
2023-02-11T10:53:48.544Z,103477.06
2023-02-11T10:56:32.041Z,103478.09
2023-02-11T11:03:05.036Z,103487.09
2023-02-11T11:07:36.089Z,103483.72
2023-02-11T11:10:20.813Z,103492.59
2023-02-11T11:12:42.379Z,103488.19
2023-02-11T11:15:17.498Z,103493.34
2023-02-11T11:16:36.272Z,103493.34
2023-02-11T11:18:22.444Z,103497.66
2023-02-11T11:30:13.915Z,103489.44
2023-02-11T11:34:35.705Z,103483.72
2023-02-11T11:36:25.780Z,103489.72
2023-02-11T11:42:07.697Z,103491.94
2023-02-11T11:44:05.471Z,103501.47
2023-02-11T11:46:25.774Z,103496.25
2023-02-11T11:48:10.459Z,103498.25
2023-02-11T11:50:31.829Z,103489.69
2023-02-11T11:52:49.690Z,103491.56
2023-02-11T11:54:30.513Z,103480.22
2023-02-11T11:56:10.670Z,103486.41
2023-02-11T11:57:45.579Z,103476.88
2023-02-11T11:59:18.097Z,103478.66
2023-02-11T12:01:24.569Z,103477.91
2023-02-11T12:03:15.566Z,103477.00
2023-02-11T12:05:20.735Z,103479.69
2023-02-11T12:07:36.120Z,103476.34
2023-02-11T12:09:33.838Z,103470.38
2023-02-11T12:18:21.896Z,103458.38
2023-02-11T12:20:34.761Z,103467.16
2023-02-11T12:22:48.738Z,103464.59
2023-02-11T12:25:03.055Z,103472.34
2023-02-11T12:26:55.906Z,103462.69
2023-02-11T12:29:05.281Z,103460.22
2023-02-11T12:32:07.114Z,103461.19
2023-02-11T12:33:53.026Z,103457.63
2023-02-11T12:35:33.936Z,103465.50
2023-02-11T12:37:47.541Z,103470.78
2023-02-11T12:40:08.376Z,103473.53
2023-02-11T12:45:26.170Z,103472.22
2023-02-11T12:47:50.252Z,103461.78
2023-02-11T12:53:24.567Z,103457.16
2023-02-11T13:03:03.086Z,103452.47
2023-02-11T13:06:35.158Z,103441.34
2023-02-11T13:08:14.814Z,103429.63
2023-02-11T13:13:34.070Z,103425.31
2023-02-11T13:15:14.303Z,103422.97
2023-02-11T13:44:00.426Z,103429.31
2023-02-11T14:53:00.231Z,103429.63
2023-02-11T15:02:54.981Z,103448.75
2023-02-11T15:03:14.198Z,103444.28
2023-02-11T15:05:00.372Z,103458.22
2023-02-11T15:10:02.688Z,103462.50
2023-02-11T15:12:19.160Z,103456.38
2023-02-11T15:14:09.363Z,103470.22
2023-02-11T15:15:44.306Z,103460.59
2023-02-11T15:17:18.501Z,103460.72
2023-02-11T15:19:03.767Z,103468.50
2023-02-11T15:20:36.217Z,103470.22
2023-02-11T15:22:25.983Z,103473.66
2023-02-11T15:24:11.041Z,103465.81
2023-02-11T15:25:53.156Z,103478.94
2023-02-11T15:27:28.034Z,103476.31
2023-02-11T15:29:02.272Z,103475.50
2023-02-11T15:30:35.372Z,103472.06
2023-02-11T15:32:18.128Z,103466.91
2023-02-11T15:34:07.807Z,103472.00
2023-02-11T15:35:41.348Z,103477.28
2023-02-11T15:37:27.480Z,103466.78
2023-02-11T15:39:34.622Z,103474.47
2023-02-11T15:41:07.804Z,103464.81
2023-02-11T15:42:52.198Z,103474.41
2023-02-11T15:44:34.191Z,103464.94
2023-02-11T15:46:11.353Z,103468.31
2023-02-11T15:47:51.496Z,103465.69
2023-02-11T15:49:25.086Z,103470.03
2023-02-11T15:50:59.511Z,103474.41
2023-02-11T15:52:33.046Z,103466.53
2023-02-11T15:54:23.029Z,103470.91
2023-02-11T15:56:24.464Z,103475.31
2023-02-11T15:58:00.082Z,103477.91
2023-02-11T15:59:40.722Z,103469.13
2023-02-11T16:01:14.468Z,103479.50
2023-02-11T16:02:47.055Z,103476.91
2023-02-11T16:04:22.239Z,103479.50
2023-02-11T16:05:56.826Z,103486.56
2023-02-11T16:07:45.651Z,103477.91
2023-02-11T16:09:17.696Z,103486.56
2023-02-11T16:11:02.919Z,103482.19
2023-02-11T16:12:38.367Z,103486.44
2023-02-11T16:14:27.554Z,103486.31
2023-02-11T16:16:22.171Z,103482.88
2023-02-11T16:17:54.860Z,103479.19
2023-02-11T16:19:28.148Z,103480.84
2023-02-11T16:21:01.737Z,103486.06
2023-02-11T16:22:38.348Z,103486.00
2023-02-11T16:24:22.762Z,103482.69
2023-02-11T16:25:59.938Z,103487.78
2023-02-11T16:27:38.719Z,103484.16
2023-02-11T16:29:17.155Z,103481.50
2023-02-11T16:30:53.645Z,103485.63
2023-02-11T16:32:28.159Z,103490.84
2023-02-11T16:34:00.384Z,103488.19
2023-02-11T16:35:33.082Z,103491.69
2023-02-11T16:37:06.176Z,103491.63
2023-02-11T16:38:39.239Z,103487.34
2023-02-11T16:40:12.896Z,103489.00
2023-02-11T16:41:45.385Z,103495.84
2023-02-11T16:43:22.170Z,103490.63
2023-02-11T16:44:54.415Z,103493.94
2023-02-11T16:46:28.966Z,103491.25
2023-02-11T16:48:02.570Z,103492.97
2023-02-11T16:49:42.010Z,103495.50
2023-02-11T16:51:14.368Z,103495.44
2023-02-11T16:52:49.042Z,103500.66
2023-02-11T16:54:21.339Z,103498.88
2023-02-11T16:55:56.151Z,103507.69
2023-02-11T16:57:30.337Z,103509.31
2023-02-11T16:59:02.958Z,103517.09
2023-02-11T17:00:36.642Z,103524.03
2023-02-11T17:02:24.489Z,103517.03
2023-02-11T17:03:56.694Z,103521.28
2023-02-11T17:05:28.860Z,103515.19
2023-02-11T17:07:01.115Z,103522.09
2023-02-11T17:08:35.874Z,103525.63
2023-02-11T17:10:19.928Z,103524.72
2023-02-11T17:11:56.986Z,103518.53
2023-02-11T17:13:41.957Z,103528.97
2023-02-11T17:15:14.383Z,103532.41
2023-02-11T17:16:50.069Z,103526.25
2023-02-11T17:18:22.440Z,103531.44
2023-02-11T17:19:57.772Z,103528.84
2023-02-11T17:21:34.592Z,103531.44
2023-02-11T17:23:07.021Z,103531.31
2023-02-11T17:24:40.859Z,103531.31
2023-02-11T17:26:13.702Z,103532.97
2023-02-11T17:27:46.085Z,103526.16
2023-02-11T17:29:23.959Z,103526.09
2023-02-11T17:30:56.352Z,103521.66
2023-02-11T17:32:30.009Z,103526.88
2023-02-11T17:34:04.839Z,103531.19
2023-02-11T17:35:41.815Z,103532.06
2023-02-11T17:37:14.414Z,103533.72
2023-02-11T17:38:49.166Z,103537.16
2023-02-11T17:42:29.735Z,103536.25
2023-02-11T17:44:01.625Z,103544.91
2023-02-11T17:45:46.911Z,103545.81
2023-02-11T17:47:16.188Z,103550.13
2023-02-11T17:48:48.499Z,103548.34
2023-02-11T17:50:48.159Z,103551.78
2023-02-11T17:54:03.322Z,103550.81
2023-02-11T17:55:13.115Z,103555.09
2023-02-11T17:56:55.198Z,103556.88
2023-02-11T17:58:33.767Z,103562.09
2023-02-11T18:00:18.860Z,103557.75
2023-02-11T18:02:03.754Z,103561.94
2023-02-11T18:03:39.020Z,103557.63
2023-02-11T18:05:25.178Z,103559.41
2023-02-11T18:07:53.456Z,103562.84
2023-02-11T18:09:27.957Z,103561.13
2023-02-11T18:11:32.422Z,103575.94
2023-02-11T18:13:32.570Z,103580.41
2023-02-11T18:15:40.149Z,103582.88
2023-02-11T18:17:31.306Z,103581.91
2023-02-11T18:19:21.183Z,103582.59
2023-02-11T18:21:41.151Z,103586.16
2023-02-11T18:23:36.096Z,103593.03
2023-02-11T18:25:27.658Z,103588.63
2023-02-11T18:35:31.603Z,103590.06
2023-02-11T18:38:18.313Z,103600.41
2023-02-11T18:53:24.976Z,103592.38
2023-02-11T19:36:24.053Z,103628.97
2023-02-11T19:41:36.060Z,103633.38
2023-02-11T19:45:20.215Z,103635.91
2023-02-11T19:47:30.194Z,103635.00
2023-02-11T19:49:07.677Z,103635.00
2023-02-11T19:57:25.202Z,103644.63
2023-02-11T19:59:11.019Z,103647.16
2023-02-11T20:05:23.974Z,103656.69
2023-02-11T20:07:06.336Z,103660.19
2023-02-11T20:09:45.743Z,103657.72
2023-02-11T20:11:38.596Z,103659.28
2023-02-11T20:13:22.730Z,103657.50
2023-02-11T20:17:08.088Z,103659.22
2023-02-11T20:18:40.739Z,103656.69
2023-02-11T20:20:13.213Z,103663.59
2023-02-11T20:21:53.141Z,103662.72
2023-02-11T20:23:41.071Z,103662.56
2023-02-11T20:25:29.666Z,103668.75
2023-02-11T20:27:08.577Z,103666.88
2023-02-11T20:28:41.931Z,103664.13
2023-02-11T20:30:14.661Z,103665.84
2023-02-11T20:31:54.792Z,103671.88
2023-02-11T20:33:30.079Z,103677.91
2023-02-11T20:35:02.921Z,103675.44
2023-02-11T20:36:37.884Z,103681.63
2023-02-11T20:38:09.806Z,103685.06
2023-02-11T20:39:45.015Z,103689.38
2023-02-11T20:41:23.630Z,103689.38
2023-02-11T20:42:56.936Z,103685.94
2023-02-11T20:44:29.133Z,103686.84
2023-02-11T20:46:05.259Z,103686.03
2023-02-11T20:47:38.406Z,103687.75
2023-02-11T20:49:14.468Z,103688.56
2023-02-11T20:50:48.737Z,103691.09
2023-02-11T20:52:20.787Z,103690.28
2023-02-11T20:53:53.477Z,103693.78
2023-02-11T20:55:25.534Z,103697.41
2023-02-11T20:56:58.466Z,103695.78
2023-02-11T20:58:30.379Z,103698.53
2023-02-11T21:00:03.320Z,103707.19
2023-02-11T21:01:36.144Z,103707.09
2023-02-11T21:03:10.974Z,103706.06
2023-02-11T21:04:42.883Z,103703.53
2023-02-11T21:06:14.927Z,103705.38
2023-02-11T21:07:47.017Z,103705.31
2023-02-11T21:09:22.123Z,103708.06
2023-02-11T21:10:57.480Z,103707.41
2023-02-11T21:12:38.120Z,103705.84
2023-02-11T21:14:10.465Z,103705.84
2023-02-11T21:15:42.558Z,103710.97
2023-02-11T21:17:14.463Z,103712.84
2023-02-11T21:18:47.472Z,103717.22
2023-02-11T21:20:19.504Z,103708.28
2023-02-11T21:21:51.617Z,103706.59
2023-02-11T21:23:24.145Z,103705.75
2023-02-11T21:24:56.104Z,103703.00
2023-02-11T21:26:28.167Z,103716.03
2023-02-11T21:28:00.275Z,103704.56
2023-02-11T21:29:34.042Z,103709.78
2023-02-11T21:31:09.060Z,103715.00
2023-02-11T21:32:47.786Z,103713.13
2023-02-11T21:34:22.288Z,103712.31
2023-02-11T21:36:25.688Z,103722.81
2023-02-11T21:38:03.267Z,103725.50
2023-02-11T21:39:40.091Z,103725.56
2023-02-11T21:41:31.255Z,103730.03
2023-02-11T21:43:09.759Z,103727.44
2023-02-11T21:44:53.280Z,103723.94
2023-02-11T21:46:25.492Z,103722.91
2023-02-11T21:48:25.154Z,103722.66
2023-02-11T21:50:00.379Z,103723.41
2023-02-11T21:51:32.500Z,103727.66
2023-02-11T21:53:06.923Z,103729.38
2023-02-11T21:54:39.118Z,103726.75
2023-02-11T21:56:22.554Z,103723.19
2023-02-11T21:57:55.124Z,103724.81
2023-02-11T21:59:33.630Z,103718.03
2023-02-11T22:01:28.578Z,103727.50
2023-02-11T22:03:00.922Z,103721.31
2023-02-11T22:04:33.622Z,103722.88
2023-02-11T22:06:21.428Z,103718.41
2023-02-11T22:08:49.149Z,103722.06
2023-02-11T22:10:33.903Z,103728.25
2023-02-11T22:12:11.613Z,103730.94
2023-02-11T22:13:46.559Z,103729.38
2023-02-11T22:15:18.628Z,103725.13
2023-02-11T22:16:50.761Z,103726.91
2023-02-11T22:18:23.059Z,103728.69
2023-02-11T22:19:57.433Z,103734.66
2023-02-11T22:21:29.612Z,103733.91
2023-02-11T22:23:01.606Z,103733.16
2023-02-11T22:24:36.043Z,103733.25
2023-02-11T22:26:17.298Z,103734.13
2023-02-11T22:27:49.371Z,103738.63
2023-02-11T22:29:21.351Z,103730.94
2023-02-11T22:30:57.749Z,103729.00
2023-02-11T22:32:29.865Z,103729.00
2023-02-11T22:34:06.151Z,103721.25
2023-02-11T22:35:40.532Z,103724.75
2023-02-11T22:37:14.569Z,103724.69
2023-02-11T22:38:47.091Z,103722.97
2023-02-11T22:40:21.843Z,103727.22
2023-02-11T22:41:56.827Z,103725.34
2023-02-11T22:43:28.992Z,103722.53
2023-02-11T22:45:03.578Z,103720.59
2023-02-11T22:46:36.259Z,103721.47
2023-02-11T22:48:08.171Z,103720.66
2023-02-11T22:49:41.519Z,103722.28
2023-02-11T22:51:21.204Z,103724.81
2023-02-11T22:52:53.754Z,103730.03
2023-02-11T22:54:25.782Z,103733.63
2023-02-11T22:56:02.222Z,103738.00
2023-02-11T22:57:34.272Z,103725.06
2023-02-11T22:59:08.445Z,103733.75
2023-02-11T23:00:41.632Z,103734.81
2023-02-11T23:02:15.951Z,103730.50
2023-02-11T23:03:48.428Z,103729.38
2023-02-11T23:05:20.502Z,103730.25
2023-02-11T23:06:52.539Z,103735.41
2023-02-11T23:08:25.232Z,103737.19
2023-02-11T23:09:57.126Z,103732.94
2023-02-11T23:11:30.811Z,103739.13
2023-02-11T23:13:06.970Z,103733.91
2023-02-11T23:14:39.525Z,103738.22
2023-02-11T23:16:14.814Z,103739.88
2023-02-11T23:17:49.586Z,103738.22
2023-02-11T23:19:21.951Z,103740.03
2023-02-11T23:20:54.427Z,103746.22
2023-02-11T23:22:26.792Z,103743.59